sensor_id;sensor_type;location;lat;lon;timestamp;P1;durP1;ratioP1;P2;durP2;ratioP2
22435;SDS011;11385;50.822;4.324;2024-02-21T00:01:21;16.67;;;6.72;;
22435;SDS011;11385;50.822;4.324;2024-02-21T00:03:48;15.43;;;6.10;;
22435;SDS011;11385;50.822;4.324;2024-02-21T00:06:15;18.37;;;5.67;;
22435;SDS011;11385;50.822;4.324;2024-02-21T00:08:41;17.32;;;6.15;;
22435;SDS011;11385;50.822;4.324;2024-02-21T00:11:08;19.40;;;6.45;;
22435;SDS011;11385;50.822;4.324;2024-02-21T00:13:35;17.62;;;6.65;;
22435;SDS011;11385;50.822;4.324;2024-02-21T00:16:01;15.13;;;5.50;;
22435;SDS011;11385;50.822;4.324;2024-02-21T00:18:28;14.90;;;6.42;;
22435;SDS011;11385;50.822;4.324;2024-02-21T00:20:55;18.10;;;5.75;;
22435;SDS011;11385;50.822;4.324;2024-02-21T00:23:22;12.55;;;5.58;;
22435;SDS011;11385;50.822;4.324;2024-02-21T00:25:50;12.73;;;6.08;;
22435;SDS011;11385;50.822;4.324;2024-02-21T00:28:17;14.98;;;5.72;;
22435;SDS011;11385;50.822;4.324;2024-02-21T00:30:44;13.32;;;5.10;;
22435;SDS011;11385;50.822;4.324;2024-02-21T00:33:10;14.23;;;5.28;;
22435;SDS011;11385;50.822;4.324;2024-02-21T00:35:37;17.77;;;6.58;;
22435;SDS011;11385;50.822;4.324;2024-02-21T00:38:03;21.62;;;7.33;;
22435;SDS011;11385;50.822;4.324;2024-02-21T00:40:30;15.40;;;6.15;;
22435;SDS011;11385;50.822;4.324;2024-02-21T00:42:57;15.13;;;5.92;;
22435;SDS011;11385;50.822;4.324;2024-02-21T00:45:23;14.50;;;5.35;;
22435;SDS011;11385;50.822;4.324;2024-02-21T00:47:50;14.20;;;5.55;;
22435;SDS011;11385;50.822;4.324;2024-02-21T00:50:17;11.08;;;5.47;;
22435;SDS011;11385;50.822;4.324;2024-02-21T00:52:43;13.08;;;5.42;;
22435;SDS011;11385;50.822;4.324;2024-02-21T00:55:10;12.03;;;5.12;;
22435;SDS011;11385;50.822;4.324;2024-02-21T00:57:36;14.80;;;5.85;;
22435;SDS011;11385;50.822;4.324;2024-02-21T01:00:04;11.45;;;5.03;;
22435;SDS011;11385;50.822;4.324;2024-02-21T01:02:32;10.98;;;5.12;;
22435;SDS011;11385;50.822;4.324;2024-02-21T01:04:59;17.70;;;5.80;;
22435;SDS011;11385;50.822;4.324;2024-02-21T01:07:27;14.95;;;5.08;;
22435;SDS011;11385;50.822;4.324;2024-02-21T01:09:53;14.63;;;5.90;;
22435;SDS011;11385;50.822;4.324;2024-02-21T01:12:21;16.20;;;6.60;;
22435;SDS011;11385;50.822;4.324;2024-02-21T01:14:47;12.28;;;5.75;;
22435;SDS011;11385;50.822;4.324;2024-02-21T01:17:15;18.23;;;7.75;;
22435;SDS011;11385;50.822;4.324;2024-02-21T01:19:41;15.75;;;6.20;;
22435;SDS011;11385;50.822;4.324;2024-02-21T01:22:08;17.98;;;6.60;;
22435;SDS011;11385;50.822;4.324;2024-02-21T01:24:35;12.78;;;6.28;;
22435;SDS011;11385;50.822;4.324;2024-02-21T01:27:01;17.57;;;6.90;;
22435;SDS011;11385;50.822;4.324;2024-02-21T01:29:28;16.02;;;6.20;;
22435;SDS011;11385;50.822;4.324;2024-02-21T01:31:54;15.05;;;5.83;;
22435;SDS011;11385;50.822;4.324;2024-02-21T01:34:21;17.12;;;6.58;;
22435;SDS011;11385;50.822;4.324;2024-02-21T01:36:48;14.35;;;6.80;;
22435;SDS011;11385;50.822;4.324;2024-02-21T01:39:14;19.48;;;6.37;;
22435;SDS011;11385;50.822;4.324;2024-02-21T01:41:41;12.20;;;6.40;;
22435;SDS011;11385;50.822;4.324;2024-02-21T01:44:08;14.68;;;6.40;;
22435;SDS011;11385;50.822;4.324;2024-02-21T01:46:34;15.28;;;6.12;;
22435;SDS011;11385;50.822;4.324;2024-02-21T01:49:01;17.07;;;7.08;;
22435;SDS011;11385;50.822;4.324;2024-02-21T01:51:28;20.00;;;6.85;;
22435;SDS011;11385;50.822;4.324;2024-02-21T01:53:55;15.40;;;6.50;;
22435;SDS011;11385;50.822;4.324;2024-02-21T01:56:23;16.48;;;7.00;;
22435;SDS011;11385;50.822;4.324;2024-02-21T01:58:50;13.22;;;5.95;;
22435;SDS011;11385;50.822;4.324;2024-02-21T02:01:17;22.55;;;7.10;;
22435;SDS011;11385;50.822;4.324;2024-02-21T02:03:45;14.75;;;6.05;;
22435;SDS011;11385;50.822;4.324;2024-02-21T02:06:12;20.90;;;6.35;;
22435;SDS011;11385;50.822;4.324;2024-02-21T02:08:40;22.22;;;6.50;;
22435;SDS011;11385;50.822;4.324;2024-02-21T02:11:08;18.00;;;7.40;;
22435;SDS011;11385;50.822;4.324;2024-02-21T02:13:34;21.20;;;7.60;;
22435;SDS011;11385;50.822;4.324;2024-02-21T02:16:01;17.87;;;7.10;;
22435;SDS011;11385;50.822;4.324;2024-02-21T02:18:29;19.05;;;7.28;;
22435;SDS011;11385;50.822;4.324;2024-02-21T02:20:56;18.37;;;7.50;;
22435;SDS011;11385;50.822;4.324;2024-02-21T02:23:25;15.85;;;6.70;;
22435;SDS011;11385;50.822;4.324;2024-02-21T02:25:52;24.12;;;10.58;;
22435;SDS011;11385;50.822;4.324;2024-02-21T02:28:19;16.77;;;6.83;;
22435;SDS011;11385;50.822;4.324;2024-02-21T02:30:47;14.38;;;6.53;;
22435;SDS011;11385;50.822;4.324;2024-02-21T02:33:14;16.27;;;6.78;;
22435;SDS011;11385;50.822;4.324;2024-02-21T02:35:43;18.75;;;6.70;;
22435;SDS011;11385;50.822;4.324;2024-02-21T02:38:09;17.95;;;6.30;;
22435;SDS011;11385;50.822;4.324;2024-02-21T02:40:38;11.73;;;6.12;;
22435;SDS011;11385;50.822;4.324;2024-02-21T02:43:06;19.37;;;6.58;;
22435;SDS011;11385;50.822;4.324;2024-02-21T02:45:33;13.28;;;6.90;;
22435;SDS011;11385;50.822;4.324;2024-02-21T02:47:59;13.80;;;6.78;;
22435;SDS011;11385;50.822;4.324;2024-02-21T02:50:26;16.73;;;6.75;;
22435;SDS011;11385;50.822;4.324;2024-02-21T02:52:54;13.15;;;6.53;;
22435;SDS011;11385;50.822;4.324;2024-02-21T02:55:21;15.80;;;7.05;;
22435;SDS011;11385;50.822;4.324;2024-02-21T02:57:48;14.23;;;6.22;;
22435;SDS011;11385;50.822;4.324;2024-02-21T03:00:15;19.62;;;6.45;;
22435;SDS011;11385;50.822;4.324;2024-02-21T03:02:42;15.55;;;6.03;;
22435;SDS011;11385;50.822;4.324;2024-02-21T03:05:13;17.77;;;6.70;;
22435;SDS011;11385;50.822;4.324;2024-02-21T03:07:40;15.98;;;6.83;;
22435;SDS011;11385;50.822;4.324;2024-02-21T03:10:08;18.70;;;6.30;;
22435;SDS011;11385;50.822;4.324;2024-02-21T03:12:35;13.88;;;5.80;;
22435;SDS011;11385;50.822;4.324;2024-02-21T03:15:02;17.50;;;6.78;;
22435;SDS011;11385;50.822;4.324;2024-02-21T03:17:30;13.28;;;6.58;;
22435;SDS011;11385;50.822;4.324;2024-02-21T03:19:57;14.25;;;6.92;;
22435;SDS011;11385;50.822;4.324;2024-02-21T03:22:25;16.73;;;6.83;;
22435;SDS011;11385;50.822;4.324;2024-02-21T03:24:52;15.50;;;6.40;;
22435;SDS011;11385;50.822;4.324;2024-02-21T03:27:19;13.83;;;6.85;;
22435;SDS011;11385;50.822;4.324;2024-02-21T03:29:45;15.98;;;7.05;;
22435;SDS011;11385;50.822;4.324;2024-02-21T03:32:12;13.53;;;6.35;;
22435;SDS011;11385;50.822;4.324;2024-02-21T03:34:39;18.00;;;6.53;;
22435;SDS011;11385;50.822;4.324;2024-02-21T03:37:05;13.90;;;6.35;;
22435;SDS011;11385;50.822;4.324;2024-02-21T03:39:32;21.07;;;6.58;;
22435;SDS011;11385;50.822;4.324;2024-02-21T03:41:59;15.20;;;6.37;;
22435;SDS011;11385;50.822;4.324;2024-02-21T03:44:27;16.02;;;6.60;;
22435;SDS011;11385;50.822;4.324;2024-02-21T03:46:54;14.90;;;6.08;;
22435;SDS011;11385;50.822;4.324;2024-02-21T03:49:21;15.88;;;6.37;;
22435;SDS011;11385;50.822;4.324;2024-02-21T03:51:47;16.67;;;6.92;;
22435;SDS011;11385;50.822;4.324;2024-02-21T03:54:14;16.80;;;6.53;;
22435;SDS011;11385;50.822;4.324;2024-02-21T03:56:43;18.67;;;6.62;;
22435;SDS011;11385;50.822;4.324;2024-02-21T03:59:10;18.00;;;6.42;;
22435;SDS011;11385;50.822;4.324;2024-02-21T04:01:37;11.33;;;6.17;;
22435;SDS011;11385;50.822;4.324;2024-02-21T04:04:04;12.95;;;6.47;;
22435;SDS011;11385;50.822;4.324;2024-02-21T04:06:31;14.55;;;6.17;;
22435;SDS011;11385;50.822;4.324;2024-02-21T04:08:57;14.98;;;6.28;;
22435;SDS011;11385;50.822;4.324;2024-02-21T04:11:24;15.68;;;6.28;;
22435;SDS011;11385;50.822;4.324;2024-02-21T04:13:50;16.73;;;6.80;;
22435;SDS011;11385;50.822;4.324;2024-02-21T04:16:17;14.70;;;5.85;;
22435;SDS011;11385;50.822;4.324;2024-02-21T04:18:44;13.50;;;6.08;;
22435;SDS011;11385;50.822;4.324;2024-02-21T04:21:14;18.57;;;6.33;;
22435;SDS011;11385;50.822;4.324;2024-02-21T04:23:41;14.07;;;6.10;;
22435;SDS011;11385;50.822;4.324;2024-02-21T04:26:08;14.38;;;7.28;;
22435;SDS011;11385;50.822;4.324;2024-02-21T04:28:34;17.02;;;7.20;;
22435;SDS011;11385;50.822;4.324;2024-02-21T04:31:01;15.80;;;6.40;;
22435;SDS011;11385;50.822;4.324;2024-02-21T04:33:28;13.68;;;6.53;;
22435;SDS011;11385;50.822;4.324;2024-02-21T04:35:54;20.57;;;6.55;;
22435;SDS011;11385;50.822;4.324;2024-02-21T04:38:21;20.60;;;6.95;;
22435;SDS011;11385;50.822;4.324;2024-02-21T04:40:48;13.03;;;6.22;;
22435;SDS011;11385;50.822;4.324;2024-02-21T04:43:14;15.90;;;6.58;;
22435;SDS011;11385;50.822;4.324;2024-02-21T04:45:41;15.35;;;5.97;;
22435;SDS011;11385;50.822;4.324;2024-02-21T04:48:07;16.62;;;6.08;;
22435;SDS011;11385;50.822;4.324;2024-02-21T04:50:34;16.37;;;6.45;;
22435;SDS011;11385;50.822;4.324;2024-02-21T04:53:01;10.60;;;5.55;;
22435;SDS011;11385;50.822;4.324;2024-02-21T04:55:27;13.32;;;5.53;;
22435;SDS011;11385;50.822;4.324;2024-02-21T04:57:54;16.62;;;6.17;;
22435;SDS011;11385;50.822;4.324;2024-02-21T05:00:20;11.68;;;5.75;;
22435;SDS011;11385;50.822;4.324;2024-02-21T05:02:47;15.65;;;6.12;;
22435;SDS011;11385;50.822;4.324;2024-02-21T05:05:14;17.95;;;6.80;;
22435;SDS011;11385;50.822;4.324;2024-02-21T05:07:42;13.48;;;5.62;;
22435;SDS011;11385;50.822;4.324;2024-02-21T05:10:09;15.10;;;7.08;;
22435;SDS011;11385;50.822;4.324;2024-02-21T05:12:35;15.15;;;6.10;;
22435;SDS011;11385;50.822;4.324;2024-02-21T05:15:03;14.23;;;5.42;;
22435;SDS011;11385;50.822;4.324;2024-02-21T05:17:30;15.93;;;6.92;;
22435;SDS011;11385;50.822;4.324;2024-02-21T05:19:56;15.20;;;6.25;;
22435;SDS011;11385;50.822;4.324;2024-02-21T05:22:23;11.25;;;5.62;;
22435;SDS011;11385;50.822;4.324;2024-02-21T05:24:49;13.03;;;5.80;;
22435;SDS011;11385;50.822;4.324;2024-02-21T05:27:16;13.18;;;5.92;;
22435;SDS011;11385;50.822;4.324;2024-02-21T05:29:43;17.55;;;6.55;;
22435;SDS011;11385;50.822;4.324;2024-02-21T05:32:10;13.40;;;5.80;;
22435;SDS011;11385;50.822;4.324;2024-02-21T05:34:36;12.15;;;5.62;;
22435;SDS011;11385;50.822;4.324;2024-02-21T05:37:03;10.43;;;4.97;;
22435;SDS011;11385;50.822;4.324;2024-02-21T05:39:30;8.53;;;5.05;;
22435;SDS011;11385;50.822;4.324;2024-02-21T05:41:56;10.53;;;5.25;;
22435;SDS011;11385;50.822;4.324;2024-02-21T05:44:23;9.38;;;4.17;;
22435;SDS011;11385;50.822;4.324;2024-02-21T05:46:51;11.25;;;5.17;;
22435;SDS011;11385;50.822;4.324;2024-02-21T05:49:18;12.40;;;4.62;;
22435;SDS011;11385;50.822;4.324;2024-02-21T05:51:44;9.03;;;4.67;;
22435;SDS011;11385;50.822;4.324;2024-02-21T05:54:11;9.85;;;4.65;;
22435;SDS011;11385;50.822;4.324;2024-02-21T05:56:37;11.12;;;4.65;;
22435;SDS011;11385;50.822;4.324;2024-02-21T05:59:04;11.38;;;4.87;;
22435;SDS011;11385;50.822;4.324;2024-02-21T06:01:31;8.80;;;4.90;;
22435;SDS011;11385;50.822;4.324;2024-02-21T06:03:57;12.00;;;5.03;;
22435;SDS011;11385;50.822;4.324;2024-02-21T06:06:24;10.00;;;4.83;;
22435;SDS011;11385;50.822;4.324;2024-02-21T06:08:50;7.03;;;4.17;;
22435;SDS011;11385;50.822;4.324;2024-02-21T06:11:17;8.68;;;4.53;;
22435;SDS011;11385;50.822;4.324;2024-02-21T06:13:44;7.67;;;3.47;;
22435;SDS011;11385;50.822;4.324;2024-02-21T06:16:10;10.45;;;4.15;;
22435;SDS011;11385;50.822;4.324;2024-02-21T06:18:37;8.85;;;3.83;;
22435;SDS011;11385;50.822;4.324;2024-02-21T06:21:03;10.70;;;4.17;;
22435;SDS011;11385;50.822;4.324;2024-02-21T06:23:30;9.40;;;4.40;;
22435;SDS011;11385;50.822;4.324;2024-02-21T06:25:57;7.58;;;4.28;;
22435;SDS011;11385;50.822;4.324;2024-02-21T06:28:24;9.53;;;4.75;;
22435;SDS011;11385;50.822;4.324;2024-02-21T06:30:51;20.25;;;11.35;;
22435;SDS011;11385;50.822;4.324;2024-02-21T06:33:17;16.40;;;6.25;;
22435;SDS011;11385;50.822;4.324;2024-02-21T06:35:46;9.23;;;5.85;;
22435;SDS011;11385;50.822;4.324;2024-02-21T06:38:13;10.93;;;5.72;;
22435;SDS011;11385;50.822;4.324;2024-02-21T06:40:41;11.75;;;5.70;;
22435;SDS011;11385;50.822;4.324;2024-02-21T06:43:08;14.45;;;6.90;;
22435;SDS011;11385;50.822;4.324;2024-02-21T06:45:34;12.85;;;6.08;;
22435;SDS011;11385;50.822;4.324;2024-02-21T06:48:01;14.35;;;7.50;;
22435;SDS011;11385;50.822;4.324;2024-02-21T06:50:28;12.93;;;6.92;;
22435;SDS011;11385;50.822;4.324;2024-02-21T06:52:54;17.15;;;7.83;;
22435;SDS011;11385;50.822;4.324;2024-02-21T06:55:21;14.33;;;8.33;;
22435;SDS011;11385;50.822;4.324;2024-02-21T06:57:48;42.05;;;22.62;;
22435;SDS011;11385;50.822;4.324;2024-02-21T07:00:14;14.13;;;7.62;;
22435;SDS011;11385;50.822;4.324;2024-02-21T07:02:42;17.00;;;7.95;;
22435;SDS011;11385;50.822;4.324;2024-02-21T07:05:09;17.73;;;8.73;;
22435;SDS011;11385;50.822;4.324;2024-02-21T07:07:35;24.25;;;15.93;;
22435;SDS011;11385;50.822;4.324;2024-02-21T07:10:02;16.97;;;7.90;;
22435;SDS011;11385;50.822;4.324;2024-02-21T07:12:30;20.68;;;11.73;;
22435;SDS011;11385;50.822;4.324;2024-02-21T07:14:56;18.40;;;11.43;;
22435;SDS011;11385;50.822;4.324;2024-02-21T07:17:23;18.20;;;8.75;;
22435;SDS011;11385;50.822;4.324;2024-02-21T07:19:50;16.73;;;8.08;;
22435;SDS011;11385;50.822;4.324;2024-02-21T07:22:17;17.25;;;7.53;;
22435;SDS011;11385;50.822;4.324;2024-02-21T07:24:43;12.30;;;7.08;;
22435;SDS011;11385;50.822;4.324;2024-02-21T07:27:10;16.90;;;8.15;;
22435;SDS011;11385;50.822;4.324;2024-02-21T07:29:36;16.25;;;6.60;;
22435;SDS011;11385;50.822;4.324;2024-02-21T07:32:03;14.87;;;7.05;;
22435;SDS011;11385;50.822;4.324;2024-02-21T07:34:30;12.70;;;7.08;;
22435;SDS011;11385;50.822;4.324;2024-02-21T07:36:57;13.10;;;6.92;;
22435;SDS011;11385;50.822;4.324;2024-02-21T07:39:23;14.83;;;7.10;;
22435;SDS011;11385;50.822;4.324;2024-02-21T07:41:50;12.13;;;7.00;;
22435;SDS011;11385;50.822;4.324;2024-02-21T07:44:17;9.90;;;5.72;;
22435;SDS011;11385;50.822;4.324;2024-02-21T07:46:43;11.12;;;5.22;;
22435;SDS011;11385;50.822;4.324;2024-02-21T07:49:10;10.93;;;5.28;;
22435;SDS011;11385;50.822;4.324;2024-02-21T07:51:36;11.57;;;5.90;;
22435;SDS011;11385;50.822;4.324;2024-02-21T07:54:03;10.93;;;5.35;;
22435;SDS011;11385;50.822;4.324;2024-02-21T07:56:30;10.58;;;4.97;;
22435;SDS011;11385;50.822;4.324;2024-02-21T07:58:56;10.88;;;5.28;;
22435;SDS011;11385;50.822;4.324;2024-02-21T08:01:23;12.90;;;5.15;;
22435;SDS011;11385;50.822;4.324;2024-02-21T08:03:50;13.30;;;5.03;;
22435;SDS011;11385;50.822;4.324;2024-02-21T08:06:16;11.33;;;4.80;;
22435;SDS011;11385;50.822;4.324;2024-02-21T08:08:43;8.70;;;4.05;;
22435;SDS011;11385;50.822;4.324;2024-02-21T08:11:10;10.60;;;4.30;;
22435;SDS011;11385;50.822;4.324;2024-02-21T08:13:36;9.10;;;4.20;;
22435;SDS011;11385;50.822;4.324;2024-02-21T08:16:03;10.23;;;3.77;;
22435;SDS011;11385;50.822;4.324;2024-02-21T08:18:30;11.35;;;4.00;;
22435;SDS011;11385;50.822;4.324;2024-02-21T08:20:57;9.60;;;3.62;;
22435;SDS011;11385;50.822;4.324;2024-02-21T08:23:23;9.33;;;3.20;;
22435;SDS011;11385;50.822;4.324;2024-02-21T08:25:50;10.68;;;3.83;;
22435;SDS011;11385;50.822;4.324;2024-02-21T08:28:17;9.33;;;4.15;;
22435;SDS011;11385;50.822;4.324;2024-02-21T08:30:43;8.13;;;2.92;;
22435;SDS011;11385;50.822;4.324;2024-02-21T08:33:12;8.58;;;4.15;;
22435;SDS011;11385;50.822;4.324;2024-02-21T08:35:39;10.38;;;3.40;;
22435;SDS011;11385;50.822;4.324;2024-02-21T08:38:05;9.13;;;3.80;;
22435;SDS011;11385;50.822;4.324;2024-02-21T08:40:32;7.00;;;3.12;;
22435;SDS011;11385;50.822;4.324;2024-02-21T08:43:01;8.43;;;2.90;;
22435;SDS011;11385;50.822;4.324;2024-02-21T08:45:27;7.65;;;3.37;;
22435;SDS011;11385;50.822;4.324;2024-02-21T08:47:54;8.30;;;3.15;;
22435;SDS011;11385;50.822;4.324;2024-02-21T08:50:20;12.15;;;7.33;;
22435;SDS011;11385;50.822;4.324;2024-02-21T08:52:47;18.02;;;9.70;;
22435;SDS011;11385;50.822;4.324;2024-02-21T08:55:14;17.37;;;9.65;;
22435;SDS011;11385;50.822;4.324;2024-02-21T08:57:40;11.88;;;3.67;;
22435;SDS011;11385;50.822;4.324;2024-02-21T09:00:08;5.45;;;2.90;;
22435;SDS011;11385;50.822;4.324;2024-02-21T09:02:37;7.17;;;3.45;;
22435;SDS011;11385;50.822;4.324;2024-02-21T09:05:06;8.45;;;2.85;;
22435;SDS011;11385;50.822;4.324;2024-02-21T09:07:34;7.90;;;2.65;;
22435;SDS011;11385;50.822;4.324;2024-02-21T09:10:01;6.85;;;2.60;;
22435;SDS011;11385;50.822;4.324;2024-02-21T09:12:28;6.47;;;2.90;;
22435;SDS011;11385;50.822;4.324;2024-02-21T09:14:55;4.83;;;2.52;;
22435;SDS011;11385;50.822;4.324;2024-02-21T09:17:21;8.88;;;3.17;;
22435;SDS011;11385;50.822;4.324;2024-02-21T09:19:48;7.87;;;2.42;;
22435;SDS011;11385;50.822;4.324;2024-02-21T09:22:16;6.42;;;3.05;;
22435;SDS011;11385;50.822;4.324;2024-02-21T09:24:42;8.73;;;3.17;;
22435;SDS011;11385;50.822;4.324;2024-02-21T09:27:09;10.93;;;3.27;;
22435;SDS011;11385;50.822;4.324;2024-02-21T09:29:36;6.70;;;2.87;;
22435;SDS011;11385;50.822;4.324;2024-02-21T09:32:05;8.08;;;3.37;;
22435;SDS011;11385;50.822;4.324;2024-02-21T09:34:32;6.15;;;2.72;;
22435;SDS011;11385;50.822;4.324;2024-02-21T09:36:58;4.60;;;2.47;;
22435;SDS011;11385;50.822;4.324;2024-02-21T09:39:25;5.30;;;2.52;;
22435;SDS011;11385;50.822;4.324;2024-02-21T09:41:53;8.05;;;3.02;;
22435;SDS011;11385;50.822;4.324;2024-02-21T09:44:22;6.70;;;3.10;;
22435;SDS011;11385;50.822;4.324;2024-02-21T09:46:56;6.30;;;2.77;;
22435;SDS011;11385;50.822;4.324;2024-02-21T09:49:33;9.05;;;2.77;;
22435;SDS011;11385;50.822;4.324;2024-02-21T09:52:04;8.60;;;3.08;;
22435;SDS011;11385;50.822;4.324;2024-02-21T09:54:34;4.85;;;2.58;;
22435;SDS011;11385;50.822;4.324;2024-02-21T09:57:01;5.22;;;2.52;;
22435;SDS011;11385;50.822;4.324;2024-02-21T09:59:31;10.08;;;4.45;;
22435;SDS011;11385;50.822;4.324;2024-02-21T10:01:58;22.82;;;15.28;;
22435;SDS011;11385;50.822;4.324;2024-02-21T10:04:27;5.45;;;1.92;;
22435;SDS011;11385;50.822;4.324;2024-02-21T10:06:54;7.08;;;2.60;;
22435;SDS011;11385;50.822;4.324;2024-02-21T10:09:21;8.00;;;2.90;;
22435;SDS011;11385;50.822;4.324;2024-02-21T10:11:49;5.50;;;2.17;;
22435;SDS011;11385;50.822;4.324;2024-02-21T10:14:17;5.65;;;2.52;;
22435;SDS011;11385;50.822;4.324;2024-02-21T10:16:45;6.03;;;2.40;;
22435;SDS011;11385;50.822;4.324;2024-02-21T10:19:17;7.90;;;2.62;;
22435;SDS011;11385;50.822;4.324;2024-02-21T10:21:57;4.67;;;2.37;;
22435;SDS011;11385;50.822;4.324;2024-02-21T10:24:25;6.35;;;2.42;;
22435;SDS011;11385;50.822;4.324;2024-02-21T10:27:01;7.53;;;2.60;;
22435;SDS011;11385;50.822;4.324;2024-02-21T10:29:30;6.62;;;2.35;;
22435;SDS011;11385;50.822;4.324;2024-02-21T10:34:33;8.43;;;2.85;;
22435;SDS011;11385;50.822;4.324;2024-02-21T10:37:03;10.90;;;3.50;;
22435;SDS011;11385;50.822;4.324;2024-02-21T10:39:32;6.97;;;2.35;;
22435;SDS011;11385;50.822;4.324;2024-02-21T10:42:00;10.53;;;3.02;;
22435;SDS011;11385;50.822;4.324;2024-02-21T10:44:31;6.70;;;2.95;;
22435;SDS011;11385;50.822;4.324;2024-02-21T10:47:00;5.15;;;2.92;;
22435;SDS011;11385;50.822;4.324;2024-02-21T10:52:02;8.55;;;2.67;;
22435;SDS011;11385;50.822;4.324;2024-02-21T10:54:30;9.13;;;2.70;;
22435;SDS011;11385;50.822;4.324;2024-02-21T10:57:02;8.78;;;2.55;;
22435;SDS011;11385;50.822;4.324;2024-02-21T10:59:30;9.28;;;2.83;;
22435;SDS011;11385;50.822;4.324;2024-02-21T11:01:58;6.60;;;2.75;;
22435;SDS011;11385;50.822;4.324;2024-02-21T11:04:25;9.13;;;3.12;;
22435;SDS011;11385;50.822;4.324;2024-02-21T11:06:52;9.58;;;2.20;;
22435;SDS011;11385;50.822;4.324;2024-02-21T11:09:28;9.55;;;2.55;;
22435;SDS011;11385;50.822;4.324;2024-02-21T11:11:57;7.60;;;2.30;;
22435;SDS011;11385;50.822;4.324;2024-02-21T11:14:26;7.35;;;2.60;;
22435;SDS011;11385;50.822;4.324;2024-02-21T11:16:53;6.65;;;2.10;;
22435;SDS011;11385;50.822;4.324;2024-02-21T11:19:22;9.25;;;3.05;;
22435;SDS011;11385;50.822;4.324;2024-02-21T11:21:51;6.25;;;2.35;;
22435;SDS011;11385;50.822;4.324;2024-02-21T11:26:55;6.45;;;2.40;;
22435;SDS011;11385;50.822;4.324;2024-02-21T11:29:23;7.03;;;2.70;;
22435;SDS011;11385;50.822;4.324;2024-02-21T11:31:51;7.05;;;2.47;;
22435;SDS011;11385;50.822;4.324;2024-02-21T11:34:18;5.10;;;2.25;;
22435;SDS011;11385;50.822;4.324;2024-02-21T11:36:47;5.75;;;2.75;;
22435;SDS011;11385;50.822;4.324;2024-02-21T11:41:47;9.45;;;3.02;;
22435;SDS011;11385;50.822;4.324;2024-02-21T11:44:16;9.63;;;2.95;;
22435;SDS011;11385;50.822;4.324;2024-02-21T11:46:42;7.62;;;2.80;;
22435;SDS011;11385;50.822;4.324;2024-02-21T11:49:09;7.53;;;2.83;;
22435;SDS011;11385;50.822;4.324;2024-02-21T11:51:36;5.92;;;2.75;;
22435;SDS011;11385;50.822;4.324;2024-02-21T11:54:03;8.83;;;2.70;;
22435;SDS011;11385;50.822;4.324;2024-02-21T11:56:30;5.75;;;2.42;;
22435;SDS011;11385;50.822;4.324;2024-02-21T11:58:58;9.50;;;2.87;;
22435;SDS011;11385;50.822;4.324;2024-02-21T12:01:25;7.03;;;2.67;;
22435;SDS011;11385;50.822;4.324;2024-02-21T12:03:52;6.30;;;3.25;;
22435;SDS011;11385;50.822;4.324;2024-02-21T12:06:19;4.22;;;2.22;;
22435;SDS011;11385;50.822;4.324;2024-02-21T12:08:47;5.45;;;2.67;;
22435;SDS011;11385;50.822;4.324;2024-02-21T12:13:58;8.78;;;2.70;;
22435;SDS011;11385;50.822;4.324;2024-02-21T12:16:27;9.35;;;2.80;;
22435;SDS011;11385;50.822;4.324;2024-02-21T12:18:56;9.15;;;2.70;;
22435;SDS011;11385;50.822;4.324;2024-02-21T12:21:24;10.23;;;3.52;;
22435;SDS011;11385;50.822;4.324;2024-02-21T12:23:53;6.15;;;2.70;;
22435;SDS011;11385;50.822;4.324;2024-02-21T12:26:21;7.42;;;2.67;;
22435;SDS011;11385;50.822;4.324;2024-02-21T12:28:48;6.65;;;2.47;;
22435;SDS011;11385;50.822;4.324;2024-02-21T12:31:15;9.85;;;3.08;;
22435;SDS011;11385;50.822;4.324;2024-02-21T12:33:42;6.37;;;3.05;;
22435;SDS011;11385;50.822;4.324;2024-02-21T12:36:09;8.05;;;2.80;;
22435;SDS011;11385;50.822;4.324;2024-02-21T12:38:36;7.62;;;3.05;;
22435;SDS011;11385;50.822;4.324;2024-02-21T12:41:03;7.30;;;2.60;;
22435;SDS011;11385;50.822;4.324;2024-02-21T12:43:30;10.18;;;3.42;;
22435;SDS011;11385;50.822;4.324;2024-02-21T12:45:57;10.40;;;3.25;;
22435;SDS011;11385;50.822;4.324;2024-02-21T12:48:24;9.60;;;3.35;;
22435;SDS011;11385;50.822;4.324;2024-02-21T12:50:50;6.60;;;3.02;;
22435;SDS011;11385;50.822;4.324;2024-02-21T12:53:17;13.35;;;3.60;;
22435;SDS011;11385;50.822;4.324;2024-02-21T12:55:47;7.33;;;3.08;;
22435;SDS011;11385;50.822;4.324;2024-02-21T12:58:14;6.90;;;2.58;;
22435;SDS011;11385;50.822;4.324;2024-02-21T13:00:41;7.90;;;2.77;;
22435;SDS011;11385;50.822;4.324;2024-02-21T13:03:08;6.45;;;3.00;;
22435;SDS011;11385;50.822;4.324;2024-02-21T13:05:36;8.65;;;2.87;;
22435;SDS011;11385;50.822;4.324;2024-02-21T13:08:05;8.38;;;3.25;;
22435;SDS011;11385;50.822;4.324;2024-02-21T13:10:34;5.00;;;3.08;;
22435;SDS011;11385;50.822;4.324;2024-02-21T13:13:01;7.53;;;2.80;;
22435;SDS011;11385;50.822;4.324;2024-02-21T13:15:29;6.30;;;2.52;;
22435;SDS011;11385;50.822;4.324;2024-02-21T13:17:56;7.17;;;3.40;;
22435;SDS011;11385;50.822;4.324;2024-02-21T13:20:23;9.30;;;3.20;;
22435;SDS011;11385;50.822;4.324;2024-02-21T13:22:52;7.60;;;2.60;;
22435;SDS011;11385;50.822;4.324;2024-02-21T13:25:23;5.58;;;2.72;;
22435;SDS011;11385;50.822;4.324;2024-02-21T13:27:52;8.23;;;2.55;;
22435;SDS011;11385;50.822;4.324;2024-02-21T13:30:20;6.10;;;2.98;;
22435;SDS011;11385;50.822;4.324;2024-02-21T13:32:47;8.80;;;2.90;;
22435;SDS011;11385;50.822;4.324;2024-02-21T13:35:14;7.08;;;2.87;;
22435;SDS011;11385;50.822;4.324;2024-02-21T13:37:41;6.90;;;3.00;;
22435;SDS011;11385;50.822;4.324;2024-02-21T13:40:08;9.18;;;2.90;;
22435;SDS011;11385;50.822;4.324;2024-02-21T13:42:36;6.65;;;3.10;;
22435;SDS011;11385;50.822;4.324;2024-02-21T13:45:05;8.93;;;2.95;;
22435;SDS011;11385;50.822;4.324;2024-02-21T13:47:33;7.72;;;2.60;;
22435;SDS011;11385;50.822;4.324;2024-02-21T13:50:02;7.90;;;2.72;;
22435;SDS011;11385;50.822;4.324;2024-02-21T13:52:30;8.70;;;2.92;;
22435;SDS011;11385;50.822;4.324;2024-02-21T13:54:57;10.30;;;3.17;;
22435;SDS011;11385;50.822;4.324;2024-02-21T13:57:24;6.95;;;3.20;;
22435;SDS011;11385;50.822;4.324;2024-02-21T13:59:52;6.90;;;3.25;;
22435;SDS011;11385;50.822;4.324;2024-02-21T14:02:19;8.13;;;3.15;;
22435;SDS011;11385;50.822;4.324;2024-02-21T14:04:47;5.25;;;2.67;;
22435;SDS011;11385;50.822;4.324;2024-02-21T14:07:13;9.13;;;3.52;;
22435;SDS011;11385;50.822;4.324;2024-02-21T14:09:40;8.45;;;3.65;;
22435;SDS011;11385;50.822;4.324;2024-02-21T14:12:07;8.23;;;3.10;;
22435;SDS011;11385;50.822;4.324;2024-02-21T14:14:35;8.08;;;2.92;;
22435;SDS011;11385;50.822;4.324;2024-02-21T14:17:02;7.33;;;2.80;;
22435;SDS011;11385;50.822;4.324;2024-02-21T14:19:29;12.70;;;5.50;;
22435;SDS011;11385;50.822;4.324;2024-02-21T14:21:56;8.58;;;4.60;;
22435;SDS011;11385;50.822;4.324;2024-02-21T14:24:23;11.48;;;5.35;;
22435;SDS011;11385;50.822;4.324;2024-02-21T14:26:50;8.48;;;3.35;;
22435;SDS011;11385;50.822;4.324;2024-02-21T14:29:16;6.55;;;3.05;;
22435;SDS011;11385;50.822;4.324;2024-02-21T14:31:43;10.32;;;3.37;;
22435;SDS011;11385;50.822;4.324;2024-02-21T14:34:10;7.72;;;3.55;;
22435;SDS011;11385;50.822;4.324;2024-02-21T14:36:36;8.63;;;3.30;;
22435;SDS011;11385;50.822;4.324;2024-02-21T14:39:03;11.25;;;3.02;;
22435;SDS011;11385;50.822;4.324;2024-02-21T14:41:30;7.97;;;3.10;;
22435;SDS011;11385;50.822;4.324;2024-02-21T14:43:57;5.92;;;3.20;;
22435;SDS011;11385;50.822;4.324;2024-02-21T14:46:25;5.40;;;2.87;;
22435;SDS011;11385;50.822;4.324;2024-02-21T14:48:55;5.00;;;2.60;;
22435;SDS011;11385;50.822;4.324;2024-02-21T14:51:22;6.60;;;2.95;;
22435;SDS011;11385;50.822;4.324;2024-02-21T14:53:50;7.22;;;3.58;;